createdAt,value
2019-04-30T00:00:06.203Z,84.10
2019-04-30T00:02:45.387Z,83.90
2019-04-30T00:05:17.787Z,84.75
2019-04-30T00:07:50.848Z,84.07
2019-04-30T00:10:19.670Z,84.55
2019-04-30T00:12:48.761Z,83.26
2019-04-30T00:15:19.466Z,84.32
2019-04-30T00:17:53.022Z,83.19
2019-04-30T00:20:30.038Z,83.86
2019-04-30T00:22:58.918Z,81.97
2019-04-30T00:25:28.728Z,83.56
2019-04-30T00:28:00.247Z,85.62
2019-04-30T00:30:29.162Z,84.96
2019-04-30T00:32:58.256Z,84.30
2019-04-30T00:35:29.065Z,83.66
2019-04-30T00:38:00.268Z,82.63
2019-04-30T00:40:30.749Z,81.85
2019-04-30T00:43:05.307Z,82.27
2019-04-30T00:45:32.789Z,82.37
2019-04-30T00:48:01.964Z,82.05
2019-04-30T00:50:33.904Z,83.42
2019-04-30T00:53:07.257Z,85.00
2019-04-30T00:55:40.191Z,85.62
2019-04-30T00:58:10.894Z,85.87
2019-04-30T01:00:52.642Z,88.60
2019-04-30T01:03:27.384Z,86.92
2019-04-30T01:05:56.750Z,87.15
2019-04-30T01:08:29.137Z,86.65
2019-04-30T01:10:59.857Z,87.48
2019-04-30T01:13:29.197Z,87.76
2019-04-30T01:15:58.750Z,86.84
2019-04-30T01:18:32.063Z,85.60
2019-04-30T01:21:02.985Z,88.09
2019-04-30T01:23:36.371Z,87.59
2019-04-30T01:26:05.583Z,86.65
2019-04-30T01:28:34.648Z,85.30
2019-04-30T01:31:03.853Z,87.06
2019-04-30T01:33:35.735Z,87.52
2019-04-30T01:36:11.193Z,87.21
2019-04-30T01:38:40.027Z,85.94
2019-04-30T01:41:06.834Z,86.73
2019-04-30T01:43:35.993Z,87.16
2019-04-30T01:46:09.255Z,86.94
2019-04-30T01:48:39.175Z,86.07
2019-04-30T01:51:13.352Z,87.63
2019-04-30T01:53:43.837Z,85.55
2019-04-30T01:56:50.239Z,87.08
2019-04-30T01:59:23.657Z,85.83
2019-04-30T02:01:53.111Z,85.39
2019-04-30T02:04:23.972Z,87.59
2019-04-30T02:06:53.265Z,87.00
2019-04-30T02:09:22.770Z,89.24
2019-04-30T02:11:51.924Z,88.11
2019-04-30T02:14:24.738Z,87.49
2019-04-30T02:16:54.968Z,86.95
2019-04-30T02:19:24.127Z,85.76
2019-04-30T02:22:00.538Z,85.42
2019-04-30T02:24:30.263Z,84.58
2019-04-30T02:27:03.075Z,84.94
2019-04-30T02:29:32.194Z,82.72
2019-04-30T02:32:01.458Z,83.72
2019-04-30T02:34:41.141Z,83.55
2019-04-30T02:37:31.032Z,84.46
2019-04-30T02:40:05.057Z,81.32
2019-04-30T02:42:34.469Z,82.58
2019-04-30T02:45:04.271Z,82.91
2019-04-30T02:47:36.776Z,83.63
2019-04-30T02:50:15.265Z,83.81
2019-04-30T02:52:40.248Z,83.67
2019-04-30T02:55:19.462Z,81.59
2019-04-30T02:57:54.563Z,81.31
2019-04-30T03:00:32.552Z,82.58
2019-04-30T03:03:10.255Z,83.48
2019-04-30T03:05:49.722Z,84.04
2019-04-30T03:08:29.739Z,82.88
2019-04-30T03:11:00.686Z,82.13
2019-04-30T03:13:37.678Z,82.02
2019-04-30T03:16:16.340Z,81.45
2019-04-30T03:19:12.312Z,82.59
2019-04-30T03:22:00.393Z,83.15
2019-04-30T03:24:29.684Z,83.09
2019-04-30T03:26:59.507Z,84.00
2019-04-30T03:29:30.505Z,83.66
2019-04-30T03:32:02.868Z,82.96
2019-04-30T03:34:34.731Z,80.58
2019-04-30T03:37:03.884Z,80.74
2019-04-30T03:39:34.024Z,79.70
2019-04-30T03:42:03.668Z,79.08
2019-04-30T03:44:39.990Z,79.93
2019-04-30T03:47:10.903Z,82.24
2019-04-30T03:49:40.297Z,83.78
2019-04-30T03:52:13.240Z,83.59
2019-04-30T03:54:42.294Z,83.18
2019-04-30T03:57:13.115Z,83.98
2019-04-30T03:59:51.151Z,82.85
2019-04-30T04:02:40.497Z,82.22
2019-04-30T04:05:39.964Z,81.99
2019-04-30T04:08:29.516Z,80.38
2019-04-30T04:11:21.354Z,79.92
2019-04-30T04:13:59.504Z,80.29
2019-04-30T04:16:32.182Z,79.11
2019-04-30T04:19:02.761Z,79.81
2019-04-30T04:21:33.432Z,82.25
2019-04-30T04:24:04.836Z,81.80
2019-04-30T04:26:37.059Z,80.69
2019-04-30T04:29:09.449Z,81.76
2019-04-30T04:31:41.696Z,83.10
2019-04-30T04:34:12.983Z,82.58
2019-04-30T04:36:51.401Z,83.18
2019-04-30T04:39:21.894Z,82.10
2019-04-30T04:41:52.173Z,83.13
2019-04-30T04:44:24.302Z,80.84
2019-04-30T04:46:53.484Z,82.98
2019-04-30T04:49:30.293Z,81.58
2019-04-30T04:51:59.271Z,81.47
2019-04-30T04:54:31.294Z,81.30
2019-04-30T04:57:17.009Z,80.68
2019-04-30T04:59:44.553Z,79.15
2019-04-30T05:02:32.572Z,78.23
2019-04-30T05:05:02.389Z,80.03
2019-04-30T05:07:37.163Z,80.23
2019-04-30T05:10:06.434Z,80.44
2019-04-30T05:12:39.887Z,80.48
2019-04-30T05:15:09.749Z,79.65
2019-04-30T05:17:41.718Z,78.40
2019-04-30T05:20:13.475Z,79.34
2019-04-30T05:22:44.054Z,80.54
2019-04-30T05:25:20.273Z,79.54
2019-04-30T05:27:52.913Z,79.50
2019-04-30T05:30:26.704Z,79.33
2019-04-30T05:32:56.260Z,79.63
2019-04-30T05:35:25.506Z,79.40
2019-04-30T05:37:59.925Z,78.09
2019-04-30T05:40:29.145Z,78.84
2019-04-30T05:43:00.331Z,79.14
2019-04-30T05:45:39.000Z,79.42
2019-04-30T05:48:08.853Z,78.25
2019-04-30T05:50:41.541Z,78.34
2019-04-30T05:53:19.070Z,79.27
2019-04-30T05:55:51.311Z,78.55
2019-04-30T05:58:20.450Z,79.05
2019-04-30T06:00:50.031Z,79.48
2019-04-30T06:03:30.754Z,79.63
2019-04-30T06:05:58.949Z,78.75
2019-04-30T06:08:34.380Z,77.90
2019-04-30T06:11:16.661Z,78.14
2019-04-30T06:14:18.566Z,79.70
2019-04-30T06:17:05.104Z,79.96
2019-04-30T06:19:34.916Z,81.35
2019-04-30T06:22:07.496Z,79.80
2019-04-30T06:24:39.570Z,79.45
2019-04-30T06:27:11.279Z,77.65
2019-04-30T06:29:45.063Z,76.96
2019-04-30T06:32:15.501Z,78.07
2019-04-30T06:34:46.055Z,76.70
2019-04-30T06:37:15.767Z,76.56
2019-04-30T06:39:47.099Z,78.12
2019-04-30T06:42:21.380Z,78.24
2019-04-30T06:44:53.020Z,77.83
2019-04-30T06:47:32.697Z,76.29
2019-04-30T06:49:55.726Z,76.87
2019-04-30T06:52:26.947Z,75.64
2019-04-30T06:54:59.657Z,77.45
2019-04-30T06:57:29.685Z,75.74
2019-04-30T07:00:09.684Z,77.47
2019-04-30T07:02:39.363Z,77.01
2019-04-30T07:05:12.316Z,75.47
2019-04-30T07:08:08.903Z,76.23
2019-04-30T07:10:34.948Z,76.21
2019-04-30T07:13:24.225Z,76.10
2019-04-30T07:15:54.947Z,77.68
2019-04-30T07:18:29.585Z,76.57
2019-04-30T07:20:58.797Z,78.00
2019-04-30T07:23:31.586Z,78.20
2019-04-30T07:26:02.204Z,76.84
2019-04-30T07:28:46.974Z,74.28
2019-04-30T07:31:19.193Z,75.50
2019-04-30T07:33:53.022Z,77.25
2019-04-30T07:36:19.768Z,76.72
2019-04-30T07:38:54.524Z,76.20
2019-04-30T07:41:23.047Z,75.78
2019-04-30T07:43:52.543Z,75.98
2019-04-30T07:46:22.732Z,75.87
2019-04-30T07:48:54.194Z,75.88
2019-04-30T07:51:24.029Z,75.12
2019-04-30T07:53:55.035Z,74.99
2019-04-30T07:56:34.928Z,74.56
2019-04-30T07:59:02.883Z,76.31
2019-04-30T08:01:30.816Z,75.03
2019-04-30T08:04:19.328Z,75.21
2019-04-30T08:06:53.031Z,75.23
2019-04-30T08:09:23.966Z,76.04
2019-04-30T08:11:59.340Z,74.02
2019-04-30T08:14:31.072Z,74.66
2019-04-30T08:17:04.175Z,74.65
2019-04-30T08:19:33.474Z,74.95
2019-04-30T08:22:05.893Z,74.71
2019-04-30T08:24:35.090Z,78.65
2019-04-30T08:27:04.330Z,76.99
2019-04-30T08:29:36.024Z,78.15
2019-04-30T08:32:06.536Z,77.90
2019-04-30T08:34:39.237Z,77.66
2019-04-30T08:37:17.277Z,75.85
2019-04-30T08:39:43.522Z,75.60
2019-04-30T08:42:12.714Z,74.85
2019-04-30T08:44:42.605Z,74.35
2019-04-30T08:47:13.061Z,73.93
2019-04-30T08:49:43.058Z,74.57
2019-04-30T08:52:12.857Z,74.98
2019-04-30T08:54:42.005Z,76.74
2019-04-30T08:57:11.207Z,74.90
2019-04-30T08:59:40.891Z,72.08
2019-04-30T09:02:16.125Z,72.64
2019-04-30T09:04:41.132Z,71.71
2019-04-30T09:07:10.666Z,71.58
2019-04-30T09:09:40.721Z,71.00
2019-04-30T09:12:14.670Z,70.82
2019-04-30T09:14:43.929Z,71.83
2019-04-30T09:17:13.160Z,72.65
2019-04-30T09:19:49.011Z,73.32
2019-04-30T09:22:21.165Z,72.98
2019-04-30T09:24:50.358Z,71.92
2019-04-30T09:27:19.874Z,74.07
2019-04-30T09:29:49.442Z,73.12
2019-04-30T09:32:21.120Z,74.01
2019-04-30T09:34:50.322Z,75.59
2019-04-30T09:37:21.943Z,75.98
2019-04-30T09:39:51.472Z,72.28
2019-04-30T09:42:23.244Z,71.04
2019-04-30T09:44:54.296Z,71.41
2019-04-30T09:47:26.351Z,70.65
2019-04-30T09:49:59.512Z,70.69
2019-04-30T09:52:30.613Z,72.78
2019-04-30T09:55:03.432Z,73.62
2019-04-30T09:57:38.991Z,72.89
2019-04-30T10:00:09.315Z,71.07
2019-04-30T10:02:42.639Z,69.91
2019-04-30T10:05:13.049Z,68.23
2019-04-30T10:07:53.117Z,70.69
2019-04-30T10:10:28.918Z,69.76
2019-04-30T10:12:59.416Z,69.89
2019-04-30T10:16:02.901Z,71.96
2019-04-30T10:18:32.319Z,69.30
2019-04-30T10:21:02.428Z,71.33
2019-04-30T10:23:31.557Z,71.56
2019-04-30T10:26:01.142Z,70.74
2019-04-30T10:28:31.162Z,68.82
2019-04-30T10:31:00.307Z,69.28
2019-04-30T10:33:30.863Z,69.79
2019-04-30T10:36:09.448Z,72.14
2019-04-30T10:38:39.365Z,74.13
2019-04-30T10:41:10.516Z,73.52
2019-04-30T10:43:41.016Z,71.84
2019-04-30T10:46:10.235Z,70.46
2019-04-30T10:48:43.455Z,68.78
2019-04-30T10:51:12.866Z,70.15
2019-04-30T10:53:42.289Z,73.31
2019-04-30T10:56:13.239Z,71.93
2019-04-30T10:58:42.438Z,70.80
2019-04-30T11:01:29.231Z,66.77
2019-04-30T11:04:01.975Z,68.55
2019-04-30T11:06:31.957Z,66.57
2019-04-30T11:09:01.288Z,70.47
2019-04-30T11:11:49.845Z,69.23
2019-04-30T11:14:19.395Z,69.97
2019-04-30T11:16:51.771Z,69.17
2019-04-30T11:19:22.409Z,66.49
2019-04-30T11:21:51.837Z,64.45
2019-04-30T11:24:23.088Z,66.25
2019-04-30T11:26:54.223Z,63.76
2019-04-30T11:29:23.850Z,62.11
2019-04-30T11:32:03.514Z,64.74
2019-04-30T11:34:38.408Z,62.76
2019-04-30T11:37:09.966Z,62.59
2019-04-30T11:39:39.704Z,58.67
2019-04-30T11:42:10.741Z,56.32
2019-04-30T11:44:42.748Z,54.41
2019-04-30T11:47:36.150Z,56.54
2019-04-30T11:50:11.844Z,58.60
2019-04-30T11:52:42.845Z,59.32
2019-04-30T11:55:12.390Z,58.90
2019-04-30T11:57:41.514Z,57.91
2019-04-30T12:00:21.461Z,54.05
2019-04-30T12:02:52.910Z,51.35
2019-04-30T12:05:24.240Z,50.27
2019-04-30T12:08:03.161Z,52.22
2019-04-30T12:10:42.164Z,53.51
2019-04-30T12:13:29.818Z,53.68
2019-04-30T12:15:59.396Z,57.09
2019-04-30T12:18:29.711Z,56.15
2019-04-30T12:21:08.948Z,54.71
2019-04-30T12:23:38.112Z,53.02
2019-04-30T12:26:09.142Z,51.29
2019-04-30T12:28:38.229Z,51.04
2019-04-30T12:31:09.896Z,49.57
2019-04-30T12:33:39.558Z,49.45
2019-04-30T12:46:18.948Z,45.77
2019-04-30T12:48:59.466Z,44.70
2019-04-30T12:51:45.043Z,45.28
2019-04-30T12:54:12.270Z,45.75
2019-04-30T12:57:03.866Z,47.00
2019-04-30T12:59:39.323Z,49.66
2019-04-30T13:02:09.116Z,51.08
2019-04-30T13:04:39.361Z,46.46
2019-04-30T13:07:10.902Z,44.86
2019-04-30T13:09:41.507Z,45.32
2019-04-30T13:12:11.784Z,46.03
2019-04-30T13:14:51.500Z,45.36
2019-04-30T13:17:14.484Z,46.96
2019-04-30T13:19:44.893Z,49.21
2019-04-30T13:22:14.021Z,46.86
2019-04-30T13:24:43.146Z,43.63
2019-04-30T13:27:14.709Z,42.18
2019-04-30T13:30:04.072Z,41.11
2019-04-30T13:32:39.459Z,44.10
2019-04-30T13:35:19.005Z,43.23
2019-04-30T13:37:59.178Z,44.04
2019-04-30T13:40:56.652Z,44.75
2019-04-30T13:43:45.095Z,43.24
2019-04-30T13:46:18.507Z,43.96
2019-04-30T13:48:47.206Z,44.67
2019-04-30T13:51:17.576Z,44.43
2019-04-30T13:53:51.395Z,43.48
2019-04-30T13:56:20.518Z,42.07
2019-04-30T13:58:51.643Z,41.79
2019-04-30T14:01:25.465Z,43.38
2019-04-30T14:04:13.888Z,42.84
2019-04-30T14:07:14.230Z,42.36
2019-04-30T14:09:44.268Z,44.47
2019-04-30T14:12:16.841Z,43.83
2019-04-30T14:14:46.005Z,42.41
2019-04-30T14:17:15.190Z,41.56
2019-04-30T14:19:46.568Z,42.20
2019-04-30T14:22:15.867Z,43.20
2019-04-30T14:24:54.557Z,42.19
2019-04-30T14:27:24.170Z,41.53
2019-04-30T14:29:53.285Z,40.89
2019-04-30T14:32:25.108Z,41.76
2019-04-30T14:34:56.083Z,39.85
2019-04-30T14:37:27.320Z,39.31
2019-04-30T14:39:59.876Z,39.88
2019-04-30T14:42:30.693Z,37.04
2019-04-30T14:45:15.993Z,37.56
2019-04-30T14:48:05.411Z,38.46
2019-04-30T14:50:36.088Z,40.42
2019-04-30T14:53:21.360Z,42.58
2019-04-30T14:56:11.738Z,42.90
2019-04-30T14:58:58.557Z,42.77
2019-04-30T15:01:42.843Z,42.11
2019-04-30T15:04:14.936Z,41.26
2019-04-30T15:06:48.754Z,41.73
2019-04-30T15:09:20.612Z,40.67
2019-04-30T15:11:51.419Z,40.03
2019-04-30T15:14:20.541Z,39.75
2019-04-30T15:16:51.714Z,39.39
2019-04-30T15:19:22.004Z,38.08
2019-04-30T15:21:51.101Z,38.33
2019-04-30T15:24:39.346Z,37.91
2019-04-30T15:27:11.246Z,37.72
2019-04-30T15:29:44.255Z,38.82
2019-04-30T15:32:14.968Z,37.08
2019-04-30T15:34:46.165Z,38.24
2019-04-30T15:37:21.701Z,40.13
2019-04-30T15:39:52.343Z,40.42
2019-04-30T15:42:20.645Z,38.88
2019-04-30T15:44:52.285Z,38.53
2019-04-30T15:47:23.350Z,37.60
2019-04-30T15:49:52.525Z,36.82
2019-04-30T15:52:23.414Z,37.25
2019-04-30T15:54:52.456Z,37.10
2019-04-30T15:57:21.639Z,36.28
2019-04-30T15:59:52.509Z,35.60
2019-04-30T16:02:56.513Z,37.02
2019-04-30T16:05:38.270Z,37.38
2019-04-30T16:08:22.657Z,38.74
2019-04-30T16:11:11.117Z,39.12
2019-04-30T16:14:09.385Z,38.16
2019-04-30T16:16:43.722Z,38.28
2019-04-30T16:19:24.968Z,38.28
2019-04-30T16:21:56.833Z,38.27
2019-04-30T16:24:26.075Z,38.49
2019-04-30T16:27:01.303Z,37.51
2019-04-30T16:29:30.398Z,38.35
2019-04-30T16:31:59.830Z,37.94
2019-04-30T16:34:32.281Z,37.32
2019-04-30T16:37:01.425Z,37.56
2019-04-30T16:39:30.572Z,37.58
2019-04-30T16:42:00.880Z,38.50
2019-04-30T16:44:31.122Z,38.39
2019-04-30T16:47:13.754Z,38.73
2019-04-30T16:49:34.847Z,38.48
2019-04-30T16:52:05.083Z,37.49
2019-04-30T16:54:35.172Z,39.07
2019-04-30T16:57:06.716Z,36.91
2019-04-30T16:59:41.792Z,37.12
2019-04-30T17:02:14.627Z,37.17
2019-04-30T17:04:53.093Z,39.66
2019-04-30T17:07:34.013Z,38.39
2019-04-30T17:10:12.076Z,38.18
2019-04-30T17:12:51.573Z,38.56
2019-04-30T17:15:26.379Z,37.78
2019-04-30T17:17:55.597Z,38.12
2019-04-30T17:20:24.679Z,38.65
2019-04-30T17:22:54.532Z,38.34
2019-04-30T17:25:23.705Z,38.51
2019-04-30T17:27:52.777Z,38.99
2019-04-30T17:30:23.250Z,38.68
2019-04-30T17:32:52.754Z,38.54
2019-04-30T17:35:21.962Z,38.17
2019-04-30T17:37:51.026Z,38.51
2019-04-30T17:40:21.580Z,39.52
2019-04-30T17:42:53.194Z,40.66
2019-04-30T17:45:23.576Z,40.10
2019-04-30T17:47:54.918Z,40.00
2019-04-30T17:50:26.160Z,40.42
2019-04-30T17:53:00.897Z,39.69
2019-04-30T17:55:34.946Z,39.87
2019-04-30T17:58:05.965Z,41.11
2019-04-30T18:00:38.821Z,40.43
2019-04-30T18:03:08.831Z,41.30
2019-04-30T18:05:42.209Z,41.70
2019-04-30T18:08:11.498Z,42.30
2019-04-30T18:10:43.877Z,43.34
2019-04-30T18:13:13.334Z,42.77
2019-04-30T18:15:45.168Z,44.87
2019-04-30T18:18:26.626Z,43.95
2019-04-30T18:21:12.996Z,42.84
2019-04-30T18:24:08.572Z,42.91
2019-04-30T18:26:44.532Z,41.87
2019-04-30T18:29:13.626Z,42.21
2019-04-30T18:31:43.632Z,42.93
2019-04-30T18:34:13.833Z,43.54
2019-04-30T18:36:43.000Z,43.40
2019-04-30T18:39:18.811Z,43.92
2019-04-30T18:41:48.122Z,43.32
2019-04-30T18:44:19.561Z,43.00
2019-04-30T18:46:49.162Z,43.93
2019-04-30T18:49:21.829Z,46.41
2019-04-30T18:51:50.959Z,46.55
2019-04-30T18:54:21.052Z,47.01
2019-04-30T18:56:51.272Z,47.50
2019-04-30T18:59:23.217Z,47.94
2019-04-30T19:01:54.086Z,47.17
2019-04-30T19:04:23.280Z,47.32
2019-04-30T19:06:57.552Z,48.14
2019-04-30T19:09:40.169Z,49.01
2019-04-30T19:12:29.002Z,49.50
2019-04-30T19:15:18.301Z,50.66
2019-04-30T19:18:05.259Z,50.63
2019-04-30T19:20:49.702Z,52.06
2019-04-30T19:23:22.630Z,52.05
2019-04-30T19:25:52.303Z,51.70
2019-04-30T19:28:21.513Z,51.88
2019-04-30T19:30:58.864Z,51.97
2019-04-30T19:33:26.901Z,52.55
2019-04-30T19:35:55.989Z,51.80
2019-04-30T19:38:25.426Z,51.95
2019-04-30T19:40:56.543Z,53.22
2019-04-30T19:43:28.678Z,54.16
2019-04-30T19:46:00.799Z,55.25
2019-04-30T19:48:33.938Z,56.07
2019-04-30T19:51:04.413Z,56.95
2019-04-30T19:53:39.753Z,57.54
2019-04-30T19:56:10.383Z,58.28
2019-04-30T19:58:54.297Z,56.96
2019-04-30T20:01:12.601Z,58.18
2019-04-30T20:03:41.880Z,58.21
2019-04-30T20:06:12.096Z,58.92
2019-04-30T20:08:41.660Z,59.29
2019-04-30T20:11:10.795Z,59.44
2019-04-30T20:13:40.431Z,60.08
2019-04-30T20:16:09.786Z,60.55
2019-04-30T20:18:39.165Z,59.94
2019-04-30T20:21:12.292Z,59.83
2019-04-30T20:23:41.476Z,60.86
2019-04-30T20:26:11.923Z,61.48
2019-04-30T20:28:42.481Z,61.89
2019-04-30T20:31:13.253Z,62.17
2019-04-30T20:33:42.378Z,62.17
2019-04-30T20:36:11.473Z,62.10
2019-04-30T20:39:18.134Z,61.32
2019-04-30T20:41:50.942Z,61.83
2019-04-30T20:44:24.508Z,62.88
2019-04-30T20:46:53.694Z,62.62
2019-04-30T20:49:22.814Z,62.11
2019-04-30T20:51:58.992Z,61.84
2019-04-30T20:54:32.951Z,61.38
2019-04-30T20:57:02.054Z,61.33
2019-04-30T20:59:32.578Z,60.32
2019-04-30T21:02:03.168Z,60.41
2019-04-30T21:04:32.253Z,60.23
2019-04-30T21:07:01.359Z,59.36
2019-04-30T21:09:31.687Z,60.40
2019-04-30T21:12:02.588Z,61.45
2019-04-30T21:14:31.699Z,61.52
2019-04-30T21:17:06.129Z,61.46
2019-04-30T21:19:36.494Z,61.62
2019-04-30T21:22:09.590Z,61.86
2019-04-30T21:24:52.674Z,61.26
2019-04-30T21:27:21.873Z,61.06
2019-04-30T21:29:52.449Z,61.46
2019-04-30T21:32:32.117Z,59.84
2019-04-30T21:35:40.475Z,60.24
2019-04-30T21:38:19.371Z,59.45
2019-04-30T21:40:49.589Z,60.15
2019-04-30T21:43:20.601Z,58.58
2019-04-30T21:45:52.228Z,58.45
2019-04-30T21:48:21.357Z,59.29
2019-04-30T21:50:50.611Z,61.45
2019-04-30T21:53:19.734Z,61.83
2019-04-30T21:55:53.302Z,63.01
2019-04-30T21:58:22.608Z,63.40
2019-04-30T22:01:18.421Z,63.66
2019-04-30T22:03:52.020Z,62.94
2019-04-30T22:06:24.468Z,62.40
2019-04-30T22:08:58.547Z,61.63
2019-04-30T22:11:29.811Z,62.37
2019-04-30T22:14:00.653Z,62.68
2019-04-30T22:16:32.798Z,62.85
2019-04-30T22:19:01.986Z,62.92
2019-04-30T22:21:31.058Z,62.90
2019-04-30T22:24:00.161Z,62.92
2019-04-30T22:26:29.236Z,63.54
2019-04-30T22:28:59.359Z,63.44
2019-04-30T22:31:29.616Z,63.11
2019-04-30T22:33:59.270Z,64.13
2019-04-30T22:36:48.655Z,64.12
2019-04-30T22:39:29.877Z,65.01
2019-04-30T22:42:30.059Z,64.97
2019-04-30T22:45:04.084Z,64.69
2019-04-30T22:47:33.199Z,62.71
2019-04-30T22:50:02.253Z,60.29
2019-04-30T22:52:32.645Z,60.10
2019-04-30T22:55:06.412Z,60.93
2019-04-30T22:57:35.417Z,62.57
2019-04-30T23:00:11.481Z,62.00
2019-04-30T23:03:00.260Z,62.96
2019-04-30T23:05:29.408Z,63.16
2019-04-30T23:07:58.685Z,62.87
2019-04-30T23:10:31.246Z,62.19
2019-04-30T23:13:00.299Z,63.44
2019-04-30T23:15:29.481Z,64.27
2019-04-30T23:17:58.656Z,62.97
2019-04-30T23:20:29.053Z,60.66
2019-04-30T23:22:58.116Z,59.13
2019-04-30T23:25:29.807Z,59.99
2019-04-30T23:28:01.777Z,61.57
2019-04-30T23:30:30.865Z,62.19
2019-04-30T23:32:59.963Z,62.76
2019-04-30T23:35:29.914Z,62.87
2019-04-30T23:38:01.603Z,61.82
2019-04-30T23:40:41.950Z,63.49
2019-04-30T23:43:11.168Z,63.78
2019-04-30T23:45:40.203Z,63.35
2019-04-30T23:48:09.292Z,64.56
2019-04-30T23:50:40.277Z,62.58
2019-04-30T23:53:15.059Z,63.33
2019-04-30T23:55:44.534Z,64.44
2019-04-30T23:58:13.945Z,64.24
